Time;durP1;ratioP1;P1;durP2;ratioP2;P2;SDS_P1;SDS_P2;PMS_P1;PMS_P2;Temp;Humidity;BMP_temperature;BMP_pressure;BME280_temperature;BME280_humidity;BME280_pressure;Samples;Min_cycle;Max_cycle;Signal;HPM_P1;HPM_P2
2023/08/01 00:00:13;;;;;;;4.32;0.50;;;;;;;17.63;100.00;99496.00;4976627;28;20038;-63
2023/08/01 00:02:42;;;;;;;1.00;0.70;;;;;;;17.63;100.00;99489.00;4973856;28;20053;-64
2023/08/01 00:05:07;;;;;;;1.48;0.75;;;;;;;17.65;100.00;99481.91;4971902;28;20030;-64
2023/08/01 00:07:33;;;;;;;1.10;0.50;;;;;;;17.65;100.00;99484.53;4974087;28;20041;-64
2023/08/01 00:09:58;;;;;;;3.60;0.55;;;;;;;17.66;100.00;99488.00;4975946;28;20066;-64
2023/08/01 00:12:24;;;;;;;2.15;0.40;;;;;;;17.66;100.00;99483.59;4974556;28;20066;-64
2023/08/01 00:14:50;;;;;;;2.47;0.75;;;;;;;17.68;100.00;99478.28;4977089;28;20038;-65
2023/08/01 00:17:15;;;;;;;2.72;0.45;;;;;;;17.69;100.00;99461.69;4978247;28;20084;-64
2023/08/01 00:19:40;;;;;;;2.60;0.50;;;;;;;17.64;100.00;99448.88;4972156;28;20030;-63
2023/08/01 00:22:06;;;;;;;1.95;1.00;;;;;;;17.62;100.00;99455.97;4977444;28;20038;-64
2023/08/01 00:24:31;;;;;;;2.22;0.82;;;;;;;17.62;100.00;99460.34;4972729;28;20046;-63
2023/08/01 00:26:56;;;;;;;0.65;0.45;;;;;;;17.63;100.00;99443.75;4970680;28;20031;-63
2023/08/01 00:29:22;;;;;;;2.38;0.30;;;;;;;17.63;100.00;99454.19;4973002;28;20026;-64
2023/08/01 00:31:48;;;;;;;1.58;0.38;;;;;;;17.64;100.00;99455.88;4973195;28;20022;-64
2023/08/01 00:34:13;;;;;;;0.77;0.40;;;;;;;17.63;100.00;99462.84;4977664;28;20702;-64
2023/08/01 00:36:38;;;;;;;2.65;0.40;;;;;;;17.66;100.00;99460.06;4974842;28;20820;-64
2023/08/01 00:39:04;;;;;;;0.45;0.30;;;;;;;17.66;100.00;99459.25;4968420;28;20046;-64
2023/08/01 00:41:29;;;;;;;0.90;0.50;;;;;;;17.69;100.00;99464.31;4973623;28;20475;-64
2023/08/01 00:43:54;;;;;;;0.95;0.40;;;;;;;17.69;100.00;99470.34;4971180;28;20207;-63
2023/08/01 00:46:20;;;;;;;1.15;0.50;;;;;;;17.69;100.00;99457.28;4973999;28;20145;-64
2023/08/01 00:48:46;;;;;;;0.47;0.25;;;;;;;17.70;100.00;99452.91;4976756;28;20041;-64
2023/08/01 00:51:12;;;;;;;0.82;0.35;;;;;;;17.71;100.00;99451.97;4976102;28;20058;-63
2023/08/01 00:53:37;;;;;;;1.13;0.30;;;;;;;17.70;100.00;99443.28;4969568;28;20515;-64
2023/08/01 00:56:04;;;;;;;0.60;0.50;;;;;;;17.71;100.00;99438.91;4975070;28;20038;-64
2023/08/01 00:58:29;;;;;;;0.85;0.40;;;;;;;17.69;100.00;99438.97;4975559;28;20084;-64
2023/08/01 01:01:06;;;;;;;0.60;0.30;;;;;;;17.69;100.00;99438.97;4976748;28;20039;-64
2023/08/01 01:03:32;;;;;;;1.65;0.80;;;;;;;17.70;100.00;99442.44;4972158;28;20400;-64
2023/08/01 01:06:06;;;;;;;3.20;0.43;;;;;;;17.71;100.00;99434.53;4974491;28;20057;-64
2023/08/01 01:08:31;;;;;;;1.27;0.50;;;;;;;17.70;100.00;99419.75;4974194;28;20085;-64
2023/08/01 01:10:57;;;;;;;1.30;0.50;;;;;;;17.70;100.00;99411.94;4977967;28;20036;-64
2023/08/01 01:13:22;;;;;;;2.42;0.55;;;;;;;17.69;100.00;99399.78;4974952;28;20479;-64
2023/08/01 01:15:47;;;;;;;3.60;0.43;;;;;;;17.69;100.00;99397.16;4973929;28;20130;-64
2023/08/01 01:18:13;;;;;;;3.03;0.52;;;;;;;17.71;100.00;99400.56;4975702;28;20050;-65
2023/08/01 01:20:38;;;;;;;0.82;0.50;;;;;;;17.73;100.00;99393.44;4977110;28;20060;-64
2023/08/01 01:23:06;;;;;;;2.17;0.50;;;;;;;17.74;100.00;99382.06;4972379;28;20129;-64
2023/08/01 01:25:32;;;;;;;1.25;0.50;;;;;;;17.74;100.00;99386.47;4971895;28;20045;-64
2023/08/01 01:27:59;;;;;;;2.92;0.98;;;;;;;17.74;100.00;99373.38;4969707;28;20035;-64
2023/08/01 01:30:27;;;;;;;1.75;0.38;;;;;;;17.75;100.00;99375.91;4975647;28;20030;-63
2023/08/01 01:32:53;;;;;;;0.60;0.40;;;;;;;17.76;100.00;99366.28;4979768;28;20133;-64
2023/08/01 01:35:18;;;;;;;1.98;0.50;;;;;;;17.77;100.00;99373.22;4973669;28;20161;-63
2023/08/01 01:37:43;;;;;;;1.25;0.52;;;;;;;17.76;100.00;99369.75;4977796;28;20056;-63
2023/08/01 01:40:09;;;;;;;4.60;0.70;;;;;;;17.79;100.00;99379.19;4974322;28;20042;-63
2023/08/01 01:42:34;;;;;;;2.80;0.63;;;;;;;17.79;100.00;99377.41;4974598;28;20047;-64
2023/08/01 01:45:00;;;;;;;2.17;0.90;;;;;;;17.79;100.00;99373.94;4975933;28;20090;-63
2023/08/01 01:47:25;;;;;;;1.02;0.50;;;;;;;17.77;100.00;99376.66;4978063;28;20047;-63
2023/08/01 01:49:50;;;;;;;4.72;0.90;;;;;;;17.79;100.00;99395.69;4974774;28;20094;-63
2023/08/01 01:52:16;;;;;;;0.70;0.40;;;;;;;17.78;100.00;99372.28;4978329;28;20124;-63
2023/08/01 01:54:41;;;;;;;0.60;0.35;;;;;;;17.73;100.00;99367.31;4971009;28;20339;-63
2023/08/01 01:57:06;;;;;;;1.38;0.70;;;;;;;17.74;100.00;99374.25;4977561;28;20156;-63
2023/08/01 01:59:32;;;;;;;2.33;0.50;;;;;;;17.72;100.00;99365.63;4974202;28;20067;-63
2023/08/01 02:01:57;;;;;;;1.95;0.50;;;;;;;17.72;100.00;99373.47;4978765;28;20129;-63
2023/08/01 02:04:22;;;;;;;3.17;0.60;;;;;;;17.75;100.00;99372.47;4978726;28;20034;-63
2023/08/01 02:06:48;;;;;;;0.60;0.40;;;;;;;17.75;100.00;99373.28;4976100;28;20432;-63
2023/08/01 02:09:13;;;;;;;1.27;0.30;;;;;;;17.75;100.00;99370.66;4978985;28;20043;-63
2023/08/01 02:11:38;;;;;;;1.02;0.50;;;;;;;17.73;100.00;99375.16;4980020;28;20038;-64
2023/08/01 02:14:04;;;;;;;0.60;0.30;;;;;;;17.73;100.00;99380.38;4984462;28;20081;-63
2023/08/01 02:16:29;;;;;;;2.17;0.40;;;;;;;17.73;100.00;99377.78;4980769;28;20046;-63
2023/08/01 02:18:54;;;;;;;2.83;0.60;;;;;;;17.71;100.00;99376.19;4982113;28;20050;-63
2023/08/01 02:21:20;;;;;;;1.20;0.40;;;;;;;17.70;100.00;99388.41;4981552;28;20177;-64
2023/08/01 02:23:45;;;;;;;1.13;0.50;;;;;;;17.68;100.00;99382.44;4979535;28;20053;-64
2023/08/01 02:26:10;;;;;;;0.50;0.38;;;;;;;17.67;100.00;99385.13;4979618;28;20042;-63
2023/08/01 02:28:36;;;;;;;0.88;0.35;;;;;;;17.67;100.00;99388.59;4981125;28;20038;-63
2023/08/01 02:31:01;;;;;;;0.75;0.40;;;;;;;17.68;100.00;99385.06;4978754;28;20026;-66
2023/08/01 02:33:26;;;;;;;2.72;0.40;;;;;;;17.67;100.00;99383.34;4981970;28;20406;-66
2023/08/01 02:35:55;;;;;;;0.88;0.40;;;;;;;17.67;100.00;99375.53;4984114;28;20070;-66
2023/08/01 02:38:20;;;;;;;0.50;0.50;;;;;;;17.67;100.00;99382.50;4978311;28;20106;-65
2023/08/01 02:40:45;;;;;;;0.55;0.52;;;;;;;17.64;100.00;99386.16;4978980;28;20502;-66
2023/08/01 02:43:11;;;;;;;1.00;0.50;;;;;;;17.55;100.00;99389.31;4983389;28;20043;-66
2023/08/01 02:45:36;;;;;;;1.30;0.52;;;;;;;17.40;100.00;99395.41;4980379;28;20085;-66
2023/08/01 02:48:01;;;;;;;0.98;0.40;;;;;;;17.25;100.00;99397.16;4978896;28;20042;-66
2023/08/01 02:50:27;;;;;;;0.70;0.50;;;;;;;17.13;100.00;99397.84;4977526;28;20053;-67
2023/08/01 02:52:52;;;;;;;0.73;0.70;;;;;;;17.08;100.00;99404.25;4981392;28;20076;-66
2023/08/01 02:55:17;;;;;;;1.02;0.70;;;;;;;17.01;100.00;99413.38;4979891;28;20476;-66
2023/08/01 02:57:43;;;;;;;1.67;0.73;;;;;;;16.91;100.00;99406.97;4979533;28;20042;-65
2023/08/01 03:00:11;;;;;;;3.13;0.80;;;;;;;16.88;100.00;99410.59;4979872;28;20042;-64
2023/08/01 03:02:38;;;;;;;1.75;0.75;;;;;;;16.88;100.00;99413.22;4980097;28;20133;-63
2023/08/01 03:05:05;;;;;;;1.55;1.00;;;;;;;16.87;100.00;99408.91;4975629;28;20161;-63
2023/08/01 03:07:30;;;;;;;1.15;0.70;;;;;;;16.85;100.00;99405.56;4977646;28;20042;-63
2023/08/01 03:09:55;;;;;;;3.00;0.57;;;;;;;16.84;100.00;99404.69;4978758;28;20171;-63
2023/08/01 03:12:21;;;;;;;1.55;0.82;;;;;;;16.84;100.00;99412.53;4983421;28;20685;-63
2023/08/01 03:14:47;;;;;;;1.70;1.15;;;;;;;16.84;100.00;99412.53;4997300;28;20038;-63
2023/08/01 03:17:13;;;;;;;2.13;1.10;;;;;;;16.79;100.00;99418.94;4993090;28;20076;-63
2023/08/01 03:19:39;;;;;;;3.38;1.40;;;;;;;16.73;100.00;99434.91;4994414;28;20758;-63
2023/08/01 03:22:04;;;;;;;2.58;1.05;;;;;;;16.69;100.00;99439.44;4997796;28;20033;-63
2023/08/01 03:24:30;;;;;;;1.83;1.00;;;;;;;16.68;100.00;99429.09;4993208;28;20045;-63
2023/08/01 03:26:55;;;;;;;1.08;0.98;;;;;;;16.63;100.00;99425.88;4998958;28;20096;-63
2023/08/01 03:29:20;;;;;;;3.78;1.23;;;;;;;16.62;100.00;99438.06;5004641;28;20108;-63
2023/08/01 03:31:46;;;;;;;2.60;1.10;;;;;;;16.57;100.00;99437.47;4996712;28;20037;-63
2023/08/01 03:34:12;;;;;;;1.63;1.23;;;;;;;16.52;100.00;99434.28;4993222;28;20030;-63
2023/08/01 03:36:38;;;;;;;2.03;1.25;;;;;;;16.47;100.00;99436.31;4998251;28;20049;-63
2023/08/01 03:39:03;;;;;;;2.22;1.25;;;;;;;16.44;100.00;99444.28;4999229;28;20038;-63
2023/08/01 03:41:29;;;;;;;4.30;1.52;;;;;;;16.41;100.00;99451.44;4996904;28;20415;-63
2023/08/01 03:43:54;;;;;;;2.92;1.48;;;;;;;16.39;100.00;99454.09;4998722;28;20054;-62
2023/08/01 03:46:20;;;;;;;3.25;1.40;;;;;;;16.37;100.00;99462.94;4996375;28;20578;-64
2023/08/01 03:48:45;;;;;;;1.42;1.23;;;;;;;16.33;100.00;99464.88;4994721;28;20579;-63
2023/08/01 03:51:11;;;;;;;2.63;1.50;;;;;;;16.32;100.00;99458.78;4994873;28;20042;-62
2023/08/01 03:53:36;;;;;;;3.28;1.60;;;;;;;16.31;100.00;99461.50;4997262;28;20969;-62
2023/08/01 03:56:02;;;;;;;4.10;1.77;;;;;;;16.31;100.00;99458.91;4995852;28;20545;-62
2023/08/01 03:58:27;;;;;;;2.72;1.77;;;;;;;16.31;100.00;99458.91;4997109;28;20911;-62
2023/08/01 04:00:53;;;;;;;3.30;1.83;;;;;;;16.30;100.00;99454.59;5002732;28;20044;-62
2023/08/01 04:03:18;;;;;;;3.25;1.98;;;;;;;16.31;100.00;99458.91;4993155;28;20419;-62
2023/08/01 04:05:44;;;;;;;2.10;1.70;;;;;;;16.29;100.00;99458.13;4996736;28;20068;-62
2023/08/01 04:08:09;;;;;;;4.57;1.80;;;;;;;16.29;100.00;99464.16;4996662;28;20038;-62
2023/08/01 04:10:34;;;;;;;2.95;1.73;;;;;;;16.31;100.00;99466.72;4999400;28;20041;-62
2023/08/01 04:13:00;;;;;;;3.97;2.20;;;;;;;16.32;100.00;99479.66;4998546;28;20049;-63
2023/08/01 04:15:25;;;;;;;3.13;2.25;;;;;;;16.34;100.00;99479.59;4991797;28;20069;-62
2023/08/01 04:17:50;;;;;;;4.55;3.00;;;;;;;16.35;100.00;99483.91;4992587;28;20042;-63
2023/08/01 04:20:15;;;;;;;3.65;2.40;;;;;;;16.36;100.00;99484.72;4993327;28;20091;-62
2023/08/01 04:22:41;;;;;;;4.18;2.33;;;;;;;16.38;100.00;99478.53;4995755;28;20043;-63
2023/08/01 04:25:07;;;;;;;3.97;2.17;;;;;;;16.40;100.00;99479.28;4995704;28;20507;-63
2023/08/01 04:27:32;;;;;;;5.25;2.70;;;;;;;16.43;100.00;99478.28;4995600;28;20060;-62
2023/08/01 04:29:58;;;;;;;5.93;2.92;;;;;;;16.44;100.00;99473.00;4997237;28;20739;-63
2023/08/01 04:32:23;;;;;;;4.07;2.45;;;;;;;16.44;100.00;99478.22;4997467;28;20030;-63
2023/08/01 04:34:48;;;;;;;3.83;2.42;;;;;;;16.45;100.00;99485.09;4996662;28;20033;-62
2023/08/01 04:37:14;;;;;;;5.30;2.65;;;;;;;16.46;100.00;99485.94;4995007;28;20239;-63
2023/08/01 04:39:39;;;;;;;3.97;2.78;;;;;;;16.45;100.00;99489.44;4997321;28;20038;-63
2023/08/01 04:42:05;;;;;;;8.13;2.72;;;;;;;16.45;100.00;99500.72;4999206;28;20037;-62
2023/08/01 04:44:31;;;;;;;8.05;3.30;;;;;;;16.42;100.00;99500.91;4997949;28;20038;-62
2023/08/01 04:46:56;;;;;;;5.20;3.25;;;;;;;16.40;100.00;99502.75;4994163;28;20571;-62
2023/08/01 04:49:21;;;;;;;9.60;3.80;;;;;;;16.39;100.00;99502.81;4996499;28;20054;-62
2023/08/01 04:51:48;;;;;;;6.63;3.80;;;;;;;16.36;100.00;99496.00;4997744;28;20041;-62
2023/08/01 04:54:14;;;;;;;7.47;3.60;;;;;;;16.26;100.00;99505.25;4996288;28;20041;-62
2023/08/01 04:56:39;;;;;;;8.32;4.30;;;;;;;16.28;100.00;99513.81;4995319;28;20034;-63
2023/08/01 04:59:05;;;;;;;5.60;4.47;;;;;;;16.25;100.00;99509.59;4995760;28;20040;-62
2023/08/01 05:01:30;;;;;;;8.43;4.63;;;;;;;16.23;100.00;99508.84;4992096;28;20380;-63
2023/08/01 05:03:56;;;;;;;5.53;3.80;;;;;;;16.23;100.00;99508.00;5002296;28;20068;-62
2023/08/01 05:06:21;;;;;;;8.13;4.10;;;;;;;16.17;100.00;99518.75;4997610;28;20041;-63
2023/08/01 05:08:46;;;;;;;8.70;4.57;;;;;;;16.14;100.00;99526.72;4993096;28;20096;-63
2023/08/01 05:11:12;;;;;;;7.72;4.22;;;;;;;16.12;100.00;99521.56;5011510;28;20113;-62
2023/08/01 05:13:37;;;;;;;6.75;4.28;;;;;;;16.09;100.00;99518.25;4993892;28;20580;-63
2023/08/01 05:16:03;;;;;;;7.97;4.57;;;;;;;16.05;100.00;99517.59;5001105;28;20141;-62
2023/08/01 05:18:28;;;;;;;9.30;3.70;;;;;;;16.03;100.00;99522.03;4994140;28;20855;-62
2023/08/01 05:20:53;;;;;;;9.55;3.97;;;;;;;16.05;100.00;99530.63;4993830;28;20072;-62
2023/08/01 05:23:19;;;;;;;9.32;4.20;;;;;;;16.05;100.00;99529.78;4992056;28;20036;-62
2023/08/01 05:25:45;;;;;;;11.20;4.53;;;;;;;16.05;100.00;99533.25;4997664;28;20026;-63
2023/08/01 05:28:10;;;;;;;9.20;4.05;;;;;;;16.07;100.00;99523.56;4996710;28;20160;-63
2023/08/01 05:30:35;;;;;;;7.85;3.97;;;;;;;16.07;100.00;99523.56;4989345;28;20050;-63
2023/08/01 05:33:01;;;;;;;8.52;4.15;;;;;;;16.08;100.00;99517.44;4997201;28;20084;-62
2023/08/01 05:35:26;;;;;;;6.97;4.05;;;;;;;16.10;100.00;99505.16;4996491;28;20042;-62
2023/08/01 05:37:51;;;;;;;7.30;3.80;;;;;;;16.11;100.00;99517.28;4997252;28;20052;-65
2023/08/01 05:40:17;;;;;;;8.88;4.25;;;;;;;16.12;100.00;99524.16;4995529;28;20042;-65
2023/08/01 05:42:42;;;;;;;6.05;4.25;;;;;;;16.17;100.00;99531.78;4992836;28;20046;-63
2023/08/01 05:45:08;;;;;;;7.55;3.95;;;;;;;16.15;100.00;99531.00;4992165;28;20042;-63
2023/08/01 05:47:35;;;;;;;7.40;3.53;;;;;;;16.15;100.00;99537.06;4992518;28;20056;-62
2023/08/01 05:50:00;;;;;;;8.18;4.32;;;;;;;16.14;100.00;99540.59;4998011;28;20062;-62
2023/08/01 05:52:26;;;;;;;7.80;4.05;;;;;;;16.16;100.00;99545.72;4996052;28;20144;-62
2023/08/01 05:54:51;;;;;;;5.97;4.13;;;;;;;16.20;100.00;99545.50;4995606;28;20081;-62
2023/08/01 05:57:17;;;;;;;7.72;4.00;;;;;;;16.31;100.00;99540.59;4994621;28;20479;-63
2023/08/01 05:59:42;;;;;;;4.50;3.42;;;;;;;16.42;100.00;99547.84;4997786;28;20578;-62
2023/08/01 06:02:07;;;;;;;9.15;4.00;;;;;;;16.55;100.00;99543.69;4994207;28;20040;-62
2023/08/01 06:04:33;;;;;;;7.70;3.95;;;;;;;16.73;100.00;99552.31;4994910;28;20041;-62
2023/08/01 06:06:58;;;;;;;9.63;4.05;;;;;;;16.86;100.00;99561.19;4998213;28;20038;-62
2023/08/01 06:09:24;;;;;;;9.23;4.18;;;;;;;16.97;100.00;99561.50;4997156;28;20041;-63
2023/08/01 06:11:49;;;;;;;7.13;3.72;;;;;;;17.07;100.00;99565.28;4998266;28;20041;-62
2023/08/01 06:14:15;;;;;;;5.20;3.15;;;;;;;17.11;100.00;99561.59;4997988;28;20053;-62
2023/08/01 06:16:41;;;;;;;6.82;4.07;;;;;;;17.16;100.00;99566.53;4991285;28;20026;-62
2023/08/01 06:19:06;;;;;;;8.13;3.00;;;;;;;17.13;100.00;99553.66;4995812;28;20426;-62
2023/08/01 06:21:31;;;;;;;6.03;3.42;;;;;;;17.24;100.00;99561.78;4994635;28;20582;-63
2023/08/01 06:23:57;;;;;;;8.48;3.47;;;;;;;17.35;99.76;99560.25;4995293;28;20038;-63
2023/08/01 06:26:22;;;;;;;8.98;3.65;;;;;;;17.35;98.17;99556.78;4992388;28;20038;-63
2023/08/01 06:28:47;;;;;;;9.65;3.75;;;;;;;17.37;96.66;99555.78;4994234;28;20034;-63
2023/08/01 06:31:13;;;;;;;8.38;3.45;;;;;;;17.49;97.86;99561.25;4995510;28;20041;-62
2023/08/01 06:33:38;;;;;;;7.05;3.92;;;;;;;17.49;96.77;99561.25;4996241;28;20034;-63
2023/08/01 06:36:05;;;;;;;8.57;3.75;;;;;;;17.61;95.83;99564.03;4993646;28;20745;-63
2023/08/01 06:38:30;;;;;;;7.85;3.25;;;;;;;17.67;95.68;99555.84;4994526;28;20104;-62
2023/08/01 06:40:56;;;;;;;7.47;3.33;;;;;;;17.73;95.76;99563.34;4995746;28;20030;-62
2023/08/01 06:43:21;;;;;;;5.80;3.33;;;;;;;17.83;94.64;99561.91;4992554;28;20042;-62
2023/08/01 06:45:46;;;;;;;6.78;3.15;;;;;;;17.78;92.73;99557.88;4991061;28;20048;-62
2023/08/01 06:48:12;;;;;;;7.55;3.53;;;;;;;17.80;92.78;99556.84;4992215;28;20507;-62
2023/08/01 06:50:37;;;;;;;8.10;3.28;;;;;;;17.93;91.69;99555.22;4993276;28;20038;-63
2023/08/01 06:53:02;;;;;;;7.22;3.70;;;;;;;18.06;90.57;99551.91;4997466;28;20033;-62
2023/08/01 06:55:28;;;;;;;5.35;3.30;;;;;;;18.06;90.58;99552.75;4998044;28;20081;-62
2023/08/01 06:57:53;;;;;;;5.00;2.80;;;;;;;18.05;90.46;99539.78;4999858;28;20068;-63
2023/08/01 07:00:19;;;;;;;9.23;3.25;;;;;;;18.04;90.32;99551.16;4995505;28;20968;-63
2023/08/01 07:02:44;;;;;;;7.55;3.80;;;;;;;17.92;89.92;99547.47;4994327;28;20049;-62
2023/08/01 07:05:09;;;;;;;7.43;3.45;;;;;;;17.96;91.37;99546.34;4986759;28;20161;-62
2023/08/01 07:07:35;;;;;;;9.30;3.67;;;;;;;18.11;91.96;99557.69;4994182;28;20038;-63
2023/08/01 07:10:00;;;;;;;8.18;4.13;;;;;;;18.27;91.56;99558.50;4999324;28;20035;-63
2023/08/01 07:12:25;;;;;;;9.02;3.85;;;;;;;18.42;90.32;99558.44;5003706;28;20065;-63
2023/08/01 07:14:51;;;;;;;7.00;3.72;;;;;;;18.36;88.46;99552.72;5000459;28;20042;-63
2023/08/01 07:17:16;;;;;;;7.72;4.00;;;;;;;18.43;87.91;99554.06;4998707;28;20592;-62
2023/08/01 07:19:42;;;;;;;8.13;4.15;;;;;;;18.56;88.02;99551.53;4995776;28;20040;-62
2023/08/01 07:22:07;;;;;;;9.38;5.00;;;;;;;18.64;86.73;99562.41;4996717;28;20054;-63
2023/08/01 07:24:32;;;;;;;8.25;4.03;;;;;;;18.59;85.66;99556.56;4999904;28;20063;-63
2023/08/01 07:26:58;;;;;;;6.97;4.40;;;;;;;18.62;85.86;99559.84;4996197;28;20454;-63
2023/08/01 07:29:23;;;;;;;10.18;4.47;;;;;;;18.51;86.36;99568.38;4997518;28;20423;-63
2023/08/01 07:31:48;;;;;;;8.77;4.97;;;;;;;18.47;86.19;99568.63;5002237;28;20037;-62
2023/08/01 07:34:14;;;;;;;10.40;4.80;;;;;;;18.43;86.65;99581.03;4998579;28;20113;-63
2023/08/01 07:36:39;;;;;;;7.50;4.53;;;;;;;18.44;86.43;99576.66;4997553;28;20038;-63
2023/08/01 07:39:04;;;;;;;10.32;4.78;;;;;;;18.44;86.68;99585.34;5005339;28;20070;-64
2023/08/01 07:41:30;;;;;;;7.82;4.35;;;;;;;18.45;86.99;99583.56;5002118;28;20042;-63
2023/08/01 07:43:55;;;;;;;7.47;4.15;;;;;;;18.49;86.33;99587.72;4995269;28;20111;-65
2023/08/01 07:46:20;;;;;;;6.70;4.30;;;;;;;18.61;86.93;99588.75;4996723;28;20037;-65
2023/08/01 07:48:46;;;;;;;7.00;4.05;;;;;;;18.60;84.15;99574.81;4996584;28;20049;-63
2023/08/01 07:51:11;;;;;;;8.63;3.85;;;;;;;18.68;84.28;99583.03;4997227;28;20989;-63
2023/08/01 07:53:37;;;;;;;11.23;4.70;;;;;;;18.73;84.89;99588.03;4994206;28;20049;-63
2023/08/01 07:56:03;;;;;;;7.13;3.67;;;;;;;18.62;85.46;99601.72;5000109;28;20057;-63
2023/08/01 07:58:29;;;;;;;7.70;3.72;;;;;;;18.53;83.09;99583.97;5004689;28;20045;-63
2023/08/01 08:00:55;;;;;;;5.72;3.60;;;;;;;18.73;84.02;99588.84;4999282;28;20539;-63
2023/08/01 08:03:22;;;;;;;9.13;4.75;;;;;;;18.84;81.08;99573.38;4994628;28;20154;-63
2023/08/01 08:05:48;;;;;;;8.05;4.43;;;;;;;19.07;82.10;99592.91;4994949;28;20037;-62
2023/08/01 08:08:14;;;;;;;7.40;4.80;;;;;;;19.15;80.79;99592.41;4995961;28;20026;-63
2023/08/01 08:10:39;;;;;;;9.32;4.88;;;;;;;19.23;81.57;99588.41;4994971;28;20088;-63
2023/08/01 08:13:04;;;;;;;8.30;4.15;;;;;;;19.25;80.92;99590.91;4990656;28;20753;-63
2023/08/01 08:15:33;;;;;;;6.55;4.20;;;;;;;19.07;79.43;99580.66;4994815;28;20085;-63
2023/08/01 08:17:59;;;;;;;11.25;5.38;;;;;;;19.02;80.61;99595.81;4997890;28;20128;-63
2023/08/01 08:20:24;;;;;;;8.18;4.55;;;;;;;19.15;80.28;99589.78;4995255;28;20042;-63
2023/08/01 08:22:49;;;;;;;9.18;4.95;;;;;;;19.18;79.91;99600.94;4997347;28;20049;-62
2023/08/01 08:25:15;;;;;;;9.77;4.78;;;;;;;19.07;77.69;99572.78;4996560;28;20041;-63
2023/08/01 08:27:40;;;;;;;9.85;4.70;;;;;;;19.10;77.01;99571.75;5000659;28;20049;-63
2023/08/01 08:30:06;;;;;;;6.72;4.30;;;;;;;19.29;77.42;99589.81;4990967;28;20034;-63
2023/08/01 08:32:31;;;;;;;7.82;4.90;;;;;;;19.34;76.58;99572.00;4996838;28;20042;-63
2023/08/01 08:34:57;;;;;;;9.18;4.95;;;;;;;19.45;76.55;99587.88;4996010;28;20034;-62
2023/08/01 08:37:22;;;;;;;7.80;4.20;;;;;;;19.45;76.73;99580.03;5030497;28;20548;-63
2023/08/01 08:39:47;;;;;;;9.02;4.20;;;;;;;19.28;75.60;99577.63;4993054;28;20042;-63
2023/08/01 08:42:13;;;;;;;7.28;4.15;;;;;;;19.18;76.02;99597.47;4996217;28;20515;-63
2023/08/01 08:44:43;;;;;;;8.77;3.95;;;;;;;19.11;76.59;99588.31;4994530;28;20046;-63
2023/08/01 08:47:10;;;;;;;6.25;4.43;;;;;;;19.14;77.22;99591.59;4991039;28;20041;-62
2023/08/01 08:49:37;;;;;;;8.10;4.07;;;;;;;19.25;76.48;99583.91;4996636;28;20033;-62
2023/08/01 08:52:03;;;;;;;6.88;3.80;;;;;;;19.27;74.71;99568.91;4998281;28;20038;-63
2023/08/01 08:54:30;;;;;;;9.07;4.18;;;;;;;19.40;73.27;99558.50;4995965;28;20044;-63
2023/08/01 08:56:55;;;;;;;6.63;3.63;;;;;;;19.57;72.43;99560.91;4993725;28;20096;-63
2023/08/01 08:59:21;;;;;;;6.97;3.35;;;;;;;19.68;71.41;99547.13;5000018;28;20037;-63
2023/08/01 09:01:47;;;;;;;7.30;3.28;;;;;;;19.74;71.36;99562.44;4997764;28;20030;-63
2023/08/01 09:04:12;;;;;;;11.27;3.63;;;;;;;19.69;70.58;99554.00;4996767;28;20089;-63
2023/08/01 09:06:48;;;;;;;9.40;3.38;;;;;;;19.71;72.36;99566.09;4997793;28;20072;-63
2023/08/01 09:09:14;;;;;;;10.05;3.45;;;;;;;19.75;71.03;99548.38;4991629;28;20119;-64
2023/08/01 09:11:45;;;;;;;4.82;3.13;;;;;;;19.84;71.04;99564.38;4991036;28;20121;-63
2023/08/01 09:14:11;;;;;;;5.75;2.80;;;;;;;19.99;69.70;99554.66;4995275;28;20029;-63
2023/08/01 09:16:36;;;;;;;4.65;3.30;;;;;;;20.38;70.01;99559.03;4992008;28;20030;-63
2023/08/01 09:19:02;;;;;;;7.30;2.95;;;;;;;20.64;68.78;99553.69;4995241;28;20060;-62
2023/08/01 09:21:33;;;;;;;7.22;2.90;;;;;;;20.83;66.70;99513.06;4999500;28;20188;-62
2023/08/01 09:24:11;;;;;;;6.18;3.65;;;;;;;20.81;66.97;99533.34;4994161;28;20128;-63
2023/08/01 09:26:37;;;;;;;5.65;2.75;;;;;;;20.84;66.70;99541.84;4993651;28;20038;-62
2023/08/01 09:29:02;;;;;;;4.78;2.92;;;;;;;21.04;66.69;99540.47;4996579;28;20028;-63
2023/08/01 09:31:33;;;;;;;6.75;3.22;;;;;;;21.01;65.77;99544.16;4997744;28;20049;-62
2023/08/01 09:33:59;;;;;;;6.78;2.58;;;;;;;21.02;65.34;99539.72;4995272;28;20038;-63
2023/08/01 09:36:25;;;;;;;4.93;2.60;;;;;;;20.84;65.28;99541.03;4990527;28;20034;-62
2023/08/01 09:38:51;;;;;;;6.00;2.47;;;;;;;21.12;65.36;99552.09;4991668;28;20157;-62
2023/08/01 09:41:20;;;;;;;6.68;2.92;;;;;;;21.34;66.11;99561.94;4993494;28;20125;-62
2023/08/01 09:43:49;;;;;;;5.43;2.65;;;;;;;21.18;65.36;99554.31;4997422;28;20026;-62
2023/08/01 09:46:15;;;;;;;3.22;2.20;;;;;;;21.28;65.67;99562.38;4998347;28;20033;-62
2023/08/01 09:48:41;;;;;;;4.72;2.35;;;;;;;21.16;62.96;99513.31;4994582;28;20373;-63
2023/08/01 09:51:14;;;;;;;5.93;2.30;;;;;;;21.31;62.14;99503.50;4992939;28;20061;-63
2023/08/01 09:54:09;;;;;;;6.07;2.45;;;;;;;21.35;61.25;99502.28;4995767;28;20034;-61
2023/08/01 09:56:35;;;;;;;5.28;2.15;;;;;;;21.50;61.89;99512.53;4988528;28;20037;-62
2023/08/01 09:59:01;;;;;;;7.45;2.20;;;;;;;21.65;62.19;99529.03;5000478;28;20042;-62
2023/08/01 10:01:27;;;;;;;6.18;2.25;;;;;;;21.51;60.97;99503.72;4993139;28;20136;-62
2023/08/01 10:03:53;;;;;;;4.85;2.28;;;;;;;21.32;61.33;99507.78;5003575;28;20038;-62
2023/08/01 10:06:21;;;;;;;6.10;2.70;;;;;;;21.20;63.13;99547.13;4995571;28;20556;-62
2023/08/01 10:08:48;;;;;;;4.25;2.22;;;;;;;21.03;65.18;99578.19;4991820;28;20045;-62
2023/08/01 10:11:18;;;;;;;6.30;2.13;;;;;;;21.27;64.53;99563.31;5001098;28;20048;-62
2023/08/01 10:13:44;;;;;;;4.35;2.28;;;;;;;21.52;62.01;99504.56;4993823;28;20034;-63
2023/08/01 10:16:11;;;;;;;7.18;2.53;;;;;;;21.86;62.60;99526.59;4995755;28;20045;-62
2023/08/01 10:18:40;;;;;;;5.85;2.25;;;;;;;22.18;60.84;99483.75;4994176;28;20566;-62
2023/08/01 10:21:07;;;;;;;4.82;2.63;;;;;;;22.36;60.36;99473.59;4996190;28;20402;-62
2023/08/01 10:23:34;;;;;;;4.88;1.75;;;;;;;22.29;59.86;99470.59;4995696;28;20125;-62
2023/08/01 10:26:03;;;;;;;6.00;2.42;;;;;;;21.95;59.81;99468.88;4998329;28;20120;-63
2023/08/01 10:28:39;;;;;;;8.57;2.42;;;;;;;22.08;61.05;99508.28;4993858;28;20527;-63
2023/08/01 10:31:13;;;;;;;4.32;2.30;;;;;;;22.09;61.06;99508.13;4996804;28;20582;-63
2023/08/01 10:33:39;;;;;;;7.38;2.17;;;;;;;22.44;61.17;99502.03;4998739;28;20380;-62
2023/08/01 10:36:14;;;;;;;4.40;2.17;;;;;;;22.93;60.58;99499.88;4998348;28;20526;-63
2023/08/01 10:38:56;;;;;;;4.85;2.17;;;;;;;22.99;59.56;99473.03;4998125;28;20045;-62
2023/08/01 10:41:30;;;;;;;4.00;1.63;;;;;;;22.49;59.14;99468.28;4994488;28;20597;-62
2023/08/01 10:44:10;;;;;;;3.67;2.30;;;;;;;21.90;60.67;99514.91;4996836;28;20033;-63
2023/08/01 10:46:49;;;;;;;4.57;2.35;;;;;;;21.34;65.86;99617.16;4999864;28;20058;-62
2023/08/01 10:49:16;;;;;;;5.68;2.33;;;;;;;20.66;73.42;99667.34;5000979;28;20052;-63
2023/08/01 10:51:42;;;;;;;5.80;2.20;;;;;;;20.30;78.44;99648.81;5002259;28;20519;-62
2023/08/01 10:54:26;;;;;;;5.95;2.50;;;;;;;20.46;80.48;99628.47;5000484;28;20650;-62
2023/08/01 10:56:55;;;;;;;9.30;2.60;;;;;;;20.51;80.48;99628.97;4993764;28;20092;-63
2023/08/01 10:59:21;;;;;;;3.85;2.00;;;;;;;20.74;78.93;99616.13;4993447;28;21087;-61
2023/08/01 11:01:49;;;;;;;4.75;2.40;;;;;;;21.14;77.43;99608.00;4995196;28;20448;-63
2023/08/01 11:04:18;;;;;;;4.70;2.00;;;;;;;21.39;72.78;99566.84;4996426;28;20068;-62
2023/08/01 11:06:49;;;;;;;4.20;2.15;;;;;;;21.72;73.36;99593.38;4997310;28;20071;-62
2023/08/01 11:09:18;;;;;;;5.95;2.33;;;;;;;22.06;71.14;99573.31;4992219;28;20048;-62
2023/08/01 11:11:44;;;;;;;5.57;2.10;;;;;;;22.16;68.83;99561.16;4994169;28;20061;-62
2023/08/01 11:14:12;;;;;;;3.58;1.75;;;;;;;22.49;67.10;99548.13;4997638;28;20057;-62
2023/08/01 11:16:37;;;;;;;5.15;2.28;;;;;;;22.71;62.90;99495.44;4995035;28;20034;-62
2023/08/01 11:19:03;;;;;;;4.45;1.70;;;;;;;22.99;58.97;99470.38;5000372;28;20795;-64
2023/08/01 11:21:28;;;;;;;6.45;1.90;;;;;;;22.68;59.97;99494.88;4993472;28;20655;-63
2023/08/01 11:23:53;;;;;;;2.97;2.00;;;;;;;22.56;58.93;99493.19;5002466;28;20046;-62